Time,TemperatureF,DewpointF,PressureIn,WindDirection,WindDirectionDegrees,WindSpeedMPH,WindSpeedGustMPH,Humidity,HourlyPrecipIn,Conditions,Clouds,dailyrainin,SolarRadiationWatts/m^2,SoftwareType,DateUTC
2013-06-04 00:01:00,75.0,10.0,-100.00,NW,305,6.0,16.0,8,0.00,,,0.00,0.000000,,2013-06-04 06:01:00,
2013-06-04 00:22:00,75.0,10.0,-100.00,NW,305,6.0,16.0,8,0.00,,,0.00,0.000000,,2013-06-04 06:22:00,
2013-06-04 00:32:00,75.0,10.0,-100.00,NW,305,6.0,16.0,8,0.00,,,0.00,0.000000,,2013-06-04 06:32:00,
2013-06-04 00:42:00,75.0,10.0,-100.00,NW,305,6.0,16.0,8,0.00,,,0.00,0.000000,,2013-06-04 06:42:00,
2013-06-04 00:52:00,75.0,10.0,-100.00,NW,305,6.0,16.0,8,0.00,,,0.00,0.000000,,2013-06-04 06:52:00,
2013-06-04 01:01:00,70.0,9.0,-100.00,NNW,331,5.0,9.0,9,0.00,,,0.00,0.000000,,2013-06-04 07:01:00,
2013-06-04 01:22:00,70.0,9.0,-100.00,NNW,331,5.0,9.0,9,0.00,,,0.00,0.000000,,2013-06-04 07:22:00,
2013-06-04 01:32:00,70.0,9.0,-100.00,NNW,331,5.0,9.0,9,0.00,,,0.00,0.000000,,2013-06-04 07:32:00,
2013-06-04 01:42:00,70.0,9.0,-100.00,NNW,331,5.0,9.0,9,0.00,,,0.00,0.000000,,2013-06-04 07:42:00,
2013-06-04 01:52:00,70.0,9.0,-100.00,NNW,331,5.0,9.0,9,0.00,,,0.00,0.000000,,2013-06-04 07:52:00,
2013-06-04 02:01:00,75.0,10.0,-100.00,WNW,290,8.0,14.0,8,0.00,,,0.00,0.000000,,2013-06-04 08:01:00,
2013-06-04 02:22:00,75.0,10.0,-100.00,WNW,290,8.0,14.0,8,0.00,,,0.00,0.000000,,2013-06-04 08:22:00,
2013-06-04 02:32:00,75.0,10.0,-100.00,WNW,290,8.0,14.0,8,0.00,,,0.00,0.000000,,2013-06-04 08:32:00,
2013-06-04 02:42:00,75.0,10.0,-100.00,WNW,290,8.0,14.0,8,0.00,,,0.00,0.000000,,2013-06-04 08:42:00,
2013-06-04 02:52:00,75.0,10.0,-100.00,WNW,290,8.0,14.0,8,0.00,,,0.00,0.000000,,2013-06-04 08:52:00,
2013-06-04 03:01:00,68.0,7.0,-100.00,NNW,343,6.0,7.0,9,0.00,,,0.00,0.000000,,2013-06-04 09:01:00,
2013-06-04 03:22:00,68.0,7.0,-100.00,NNW,343,6.0,7.0,9,0.00,,,0.00,0.000000,,2013-06-04 09:22:00,
2013-06-04 03:33:00,68.0,7.0,-100.00,NNW,343,6.0,7.0,9,0.00,,,0.00,0.000000,,2013-06-04 09:33:00,
2013-06-04 03:43:00,68.0,7.0,-100.00,NNW,343,6.0,7.0,9,0.00,,,0.00,0.000000,,2013-06-04 09:43:00,
2013-06-04 03:53:00,68.0,7.0,-100.00,NNW,343,6.0,7.0,9,0.00,,,0.00,0.000000,,2013-06-04 09:53:00,
2013-06-04 04:01:00,69.0,10.0,-100.00,NNW,347,5.0,8.0,10,0.00,,,0.00,0.000000,,2013-06-04 10:01:00,
2013-06-04 04:23:00,69.0,10.0,-100.00,NNW,347,5.0,8.0,10,0.00,,,0.00,0.000000,,2013-06-04 10:23:00,
2013-06-04 04:33:00,69.0,10.0,-100.00,NNW,347,5.0,8.0,10,0.00,,,0.00,0.000000,,2013-06-04 10:33:00,
2013-06-04 04:42:00,69.0,10.0,-100.00,NNW,347,5.0,8.0,10,0.00,,,0.00,0.000000,,2013-06-04 10:42:00,
2013-06-04 04:53:00,69.0,10.0,-100.00,NNW,347,5.0,8.0,10,0.00,,,0.00,0.000000,,2013-06-04 10:53:00,
2013-06-04 05:01:00,67.0,13.0,-100.00,NNW,348,4.0,8.0,12,0.00,,,0.00,0.000000,,2013-06-04 11:01:00,
2013-06-04 05:22:00,67.0,13.0,-100.00,NNW,348,4.0,8.0,12,0.00,,,0.00,0.000000,,2013-06-04 11:22:00,
2013-06-04 05:32:00,67.0,13.0,-100.00,NNW,348,4.0,8.0,12,0.00,,,0.00,0.000000,,2013-06-04 11:32:00,
2013-06-04 05:43:00,67.0,13.0,-100.00,NNW,348,4.0,8.0,12,0.00,,,0.00,0.000000,,2013-06-04 11:43:00,
2013-06-04 05:52:00,67.0,13.0,-100.00,NNW,348,4.0,8.0,12,0.00,,,0.00,0.000000,,2013-06-04 11:52:00,
2013-06-04 06:01:00,67.0,15.0,-100.00,North,2,5.0,6.0,13,0.00,,,0.00,1.000000,,2013-06-04 12:01:00,
2013-06-04 06:22:00,67.0,15.0,-100.00,North,2,5.0,6.0,13,0.00,,,0.00,1.000000,,2013-06-04 12:22:00,
2013-06-04 06:32:00,67.0,15.0,-100.00,North,2,5.0,6.0,13,0.00,,,0.00,1.000000,,2013-06-04 12:32:00,
2013-06-04 06:42:00,67.0,15.0,-100.00,North,2,5.0,6.0,13,0.00,,,0.00,1.000000,,2013-06-04 12:42:00,
2013-06-04 06:53:00,67.0,15.0,-100.00,North,2,5.0,6.0,13,0.00,,,0.00,1.000000,,2013-06-04 12:53:00,
2013-06-04 07:01:00,67.0,15.0,-100.00,North,6,4.0,7.0,13,0.00,,,0.00,17.000000,,2013-06-04 13:01:00,
2013-06-04 07:22:00,67.0,15.0,-100.00,North,6,4.0,7.0,13,0.00,,,0.00,17.000000,,2013-06-04 13:22:00,
2013-06-04 07:32:00,67.0,15.0,-100.00,North,6,4.0,7.0,13,0.00,,,0.00,17.000000,,2013-06-04 13:32:00,
2013-06-04 07:42:00,67.0,15.0,-100.00,North,6,4.0,7.0,13,0.00,,,0.00,17.000000,,2013-06-04 13:42:00,
2013-06-04 07:52:00,67.0,15.0,-100.00,North,6,4.0,7.0,13,0.00,,,0.00,17.000000,,2013-06-04 13:52:00,
2013-06-04 08:01:00,79.0,18.0,-100.00,North,358,4.0,7.0,10,0.00,,,0.00,271.000000,,2013-06-04 14:01:00,
2013-06-04 08:22:00,79.0,18.0,-100.00,North,358,4.0,7.0,10,0.00,,,0.00,271.000000,,2013-06-04 14:22:00,
2013-06-04 08:32:00,79.0,18.0,-100.00,North,358,4.0,7.0,10,0.00,,,0.00,271.000000,,2013-06-04 14:32:00,
2013-06-04 08:43:00,79.0,18.0,-100.00,North,358,4.0,7.0,10,0.00,,,0.00,271.000000,,2013-06-04 14:43:00,
2013-06-04 08:52:00,79.0,18.0,-100.00,North,358,4.0,7.0,10,0.00,,,0.00,271.000000,,2013-06-04 14:52:00,
2013-06-04 09:01:00,83.0,18.0,-100.00,North,359,5.0,12.0,9,0.00,,,0.00,495.000000,,2013-06-04 15:01:00,
2013-06-04 09:22:00,83.0,18.0,-100.00,North,359,5.0,12.0,9,0.00,,,0.00,495.000000,,2013-06-04 15:22:00,
2013-06-04 09:33:00,83.0,18.0,-100.00,North,359,5.0,12.0,9,0.00,,,0.00,495.000000,,2013-06-04 15:33:00,
2013-06-04 09:42:00,83.0,18.0,-100.00,North,359,5.0,12.0,9,0.00,,,0.00,495.000000,,2013-06-04 15:42:00,
2013-06-04 09:53:00,83.0,18.0,-100.00,North,359,5.0,12.0,9,0.00,,,0.00,495.000000,,2013-06-04 15:53:00,
2013-06-04 10:01:00,84.0,19.0,-100.00,WNW,292,9.0,14.0,9,0.00,,,0.00,706.000000,,2013-06-04 16:01:00,
2013-06-04 10:23:00,84.0,19.0,-100.00,WNW,292,9.0,14.0,9,0.00,,,0.00,706.000000,,2013-06-04 16:23:00,
2013-06-04 10:33:00,84.0,19.0,-100.00,WNW,292,9.0,14.0,9,0.00,,,0.00,706.000000,,2013-06-04 16:33:00,
2013-06-04 10:42:00,84.0,19.0,-100.00,WNW,292,9.0,14.0,9,0.00,,,0.00,706.000000,,2013-06-04 16:42:00,
2013-06-04 10:53:00,84.0,19.0,-100.00,WNW,292,9.0,14.0,9,0.00,,,0.00,706.000000,,2013-06-04 16:53:00,
2013-06-04 11:01:00,84.0,22.0,-100.00,WNW,282,10.0,19.0,10,0.00,,,0.00,881.000000,,2013-06-04 17:01:00,
2013-06-04 11:23:00,84.0,22.0,-100.00,WNW,282,10.0,19.0,10,0.00,,,0.00,881.000000,,2013-06-04 17:23:00,
2013-06-04 11:33:00,84.0,22.0,-100.00,WNW,282,10.0,19.0,10,0.00,,,0.00,881.000000,,2013-06-04 17:33:00,
2013-06-04 11:42:00,84.0,22.0,-100.00,WNW,282,10.0,19.0,10,0.00,,,0.00,881.000000,,2013-06-04 17:42:00,
2013-06-04 11:52:00,84.0,22.0,-100.00,WNW,282,10.0,19.0,10,0.00,,,0.00,881.000000,,2013-06-04 17:52:00,
2013-06-04 12:01:00,87.0,21.0,-100.00,West,281,12.0,24.0,9,0.00,,,0.00,1001.000000,,2013-06-04 18:01:00,
2013-06-04 12:22:00,87.0,21.0,-100.00,West,281,12.0,24.0,9,0.00,,,0.00,1001.000000,,2013-06-04 18:22:00,
2013-06-04 12:32:00,87.0,21.0,-100.00,West,281,12.0,24.0,9,0.00,,,0.00,1001.000000,,2013-06-04 18:32:00,
2013-06-04 12:42:00,87.0,21.0,-100.00,West,281,12.0,24.0,9,0.00,,,0.00,1001.000000,,2013-06-04 18:42:00,
2013-06-04 12:53:00,87.0,21.0,-100.00,West,281,12.0,24.0,9,0.00,,,0.00,1001.000000,,2013-06-04 18:53:00,
2013-06-04 13:01:00,88.0,22.0,-100.00,WSW,241,10.0,22.0,9,0.00,,,0.00,1059.000000,,2013-06-04 19:01:00,
2013-06-04 13:22:00,88.0,22.0,-100.00,WSW,241,10.0,22.0,9,0.00,,,0.00,1059.000000,,2013-06-04 19:22:00,
2013-06-04 13:33:00,88.0,22.0,-100.00,WSW,241,10.0,22.0,9,0.00,,,0.00,1059.000000,,2013-06-04 19:33:00,
2013-06-04 13:42:00,88.0,22.0,-100.00,WSW,241,10.0,22.0,9,0.00,,,0.00,1059.000000,,2013-06-04 19:42:00,
2013-06-04 13:52:00,88.0,22.0,-100.00,WSW,241,10.0,22.0,9,0.00,,,0.00,1059.000000,,2013-06-04 19:52:00,
2013-06-04 14:01:00,88.0,22.0,-100.00,SW,224,11.0,21.0,9,0.00,,,0.00,1056.000000,,2013-06-04 20:01:00,
2013-06-04 14:22:00,88.0,22.0,-100.00,SW,224,11.0,21.0,9,0.00,,,0.00,1056.000000,,2013-06-04 20:22:00,
2013-06-04 14:32:00,88.0,22.0,-100.00,SW,224,11.0,21.0,9,0.00,,,0.00,1056.000000,,2013-06-04 20:32:00,
2013-06-04 14:42:00,88.0,22.0,-100.00,SW,224,11.0,21.0,9,0.00,,,0.00,1056.000000,,2013-06-04 20:42:00,
2013-06-04 14:53:00,88.0,22.0,-100.00,SW,224,11.0,21.0,9,0.00,,,0.00,1056.000000,,2013-06-04 20:53:00,
2013-06-04 15:01:00,89.0,25.0,-100.00,West,276,10.0,23.0,10,0.00,,,0.00,982.000000,,2013-06-04 21:01:00,
2013-06-04 15:22:00,89.0,25.0,-100.00,West,276,10.0,23.0,10,0.00,,,0.00,982.000000,,2013-06-04 21:22:00,
2013-06-04 15:33:00,89.0,25.0,-100.00,West,276,10.0,23.0,10,0.00,,,0.00,982.000000,,2013-06-04 21:33:00,
2013-06-04 15:42:00,89.0,25.0,-100.00,West,276,10.0,23.0,10,0.00,,,0.00,982.000000,,2013-06-04 21:42:00,
2013-06-04 15:53:00,89.0,25.0,-100.00,West,276,10.0,23.0,10,0.00,,,0.00,982.000000,,2013-06-04 21:53:00,
2013-06-04 16:01:00,89.0,25.0,-100.00,WSW,246,11.0,26.0,10,0.00,,,0.00,803.000000,,2013-06-04 22:01:00,
2013-06-04 16:22:00,89.0,25.0,-100.00,WSW,246,11.0,26.0,10,0.00,,,0.00,803.000000,,2013-06-04 22:22:00,
2013-06-04 16:33:00,89.0,25.0,-100.00,WSW,246,11.0,26.0,10,0.00,,,0.00,803.000000,,2013-06-04 22:33:00,
2013-06-04 16:42:00,89.0,25.0,-100.00,WSW,246,11.0,26.0,10,0.00,,,0.00,803.000000,,2013-06-04 22:42:00,
2013-06-04 16:52:00,89.0,25.0,-100.00,WSW,246,11.0,26.0,10,0.00,,,0.00,803.000000,,2013-06-04 22:52:00,
2013-06-04 17:01:00,87.0,24.0,-100.00,West,268,11.0,27.0,10,0.00,,,0.00,692.000000,,2013-06-04 23:01:00,
2013-06-04 17:22:00,87.0,24.0,-100.00,West,268,11.0,27.0,10,0.00,,,0.00,692.000000,,2013-06-04 23:22:00,
2013-06-04 17:32:00,87.0,24.0,-100.00,West,268,11.0,27.0,10,0.00,,,0.00,692.000000,,2013-06-04 23:32:00,
2013-06-04 17:42:00,87.0,24.0,-100.00,West,268,11.0,27.0,10,0.00,,,0.00,692.000000,,2013-06-04 23:42:00,
2013-06-04 17:52:00,87.0,24.0,-100.00,West,268,11.0,27.0,10,0.00,,,0.00,692.000000,,2013-06-04 23:52:00,
2013-06-04 18:01:00,88.0,25.0,-100.00,WSW,254,11.0,25.0,10,0.00,,,0.00,535.000000,,2013-06-05 00:01:00,
2013-06-04 18:22:00,88.0,25.0,-100.00,WSW,254,11.0,25.0,10,0.00,,,0.00,535.000000,,2013-06-05 00:22:00,
2013-06-04 18:33:00,88.0,25.0,-100.00,WSW,254,11.0,25.0,10,0.00,,,0.00,535.000000,,2013-06-05 00:33:00,
2013-06-04 18:42:00,88.0,25.0,-100.00,WSW,254,11.0,25.0,10,0.00,,,0.00,535.000000,,2013-06-05 00:42:00,
2013-06-04 18:52:00,88.0,25.0,-100.00,WSW,254,11.0,25.0,10,0.00,,,0.00,535.000000,,2013-06-05 00:52:00,
2013-06-04 19:01:00,84.0,24.0,-100.00,West,281,11.0,22.0,11,0.00,,,0.00,267.000000,,2013-06-05 01:01:00,
2013-06-04 19:22:00,84.0,24.0,-100.00,West,281,11.0,22.0,11,0.00,,,0.00,267.000000,,2013-06-05 01:22:00,
2013-06-04 19:32:00,84.0,24.0,-100.00,West,281,11.0,22.0,11,0.00,,,0.00,267.000000,,2013-06-05 01:32:00,
2013-06-04 19:42:00,84.0,24.0,-100.00,West,281,11.0,22.0,11,0.00,,,0.00,267.000000,,2013-06-05 01:42:00,
2013-06-04 19:52:00,84.0,24.0,-100.00,West,281,11.0,22.0,11,0.00,,,0.00,267.000000,,2013-06-05 01:52:00,
2013-06-04 20:01:00,82.0,24.0,-100.00,WNW,285,11.0,21.0,12,0.00,,,0.00,86.000000,,2013-06-05 02:01:00,
2013-06-04 20:22:00,82.0,24.0,-100.00,WNW,285,11.0,21.0,12,0.00,,,0.00,86.000000,,2013-06-05 02:22:00,
2013-06-04 20:32:00,82.0,24.0,-100.00,WNW,285,11.0,21.0,12,0.00,,,0.00,86.000000,,2013-06-05 02:32:00,
2013-06-04 20:42:00,82.0,24.0,-100.00,WNW,285,11.0,21.0,12,0.00,,,0.00,86.000000,,2013-06-05 02:42:00,
2013-06-04 20:52:00,82.0,24.0,-100.00,WNW,285,11.0,21.0,12,0.00,,,0.00,86.000000,,2013-06-05 02:52:00,
2013-06-04 21:01:00,79.0,22.0,-100.00,WNW,293,6.0,22.0,12,0.00,,,0.00,2.000000,,2013-06-05 03:01:00,
2013-06-04 21:33:00,79.0,22.0,-100.00,WNW,293,6.0,22.0,12,0.00,,,0.00,2.000000,,2013-06-05 03:33:00,
2013-06-04 21:43:00,79.0,22.0,-100.00,WNW,293,6.0,22.0,12,0.00,,,0.00,2.000000,,2013-06-05 03:43:00,
2013-06-04 21:53:00,79.0,22.0,-100.00,WNW,293,6.0,22.0,12,0.00,,,0.00,2.000000,,2013-06-05 03:53:00,
2013-06-04 22:01:00,77.0,29.0,-100.00,NNW,327,6.0,21.0,17,0.00,,,-99.99,0.000000,,2013-06-05 04:01:00,
2013-06-04 22:23:00,77.0,29.0,-100.00,NNW,327,6.0,21.0,17,0.00,,,-99.99,0.000000,,2013-06-05 04:23:00,
2013-06-04 22:33:00,77.0,29.0,-100.00,NNW,327,6.0,21.0,17,0.00,,,-99.99,0.000000,,2013-06-05 04:33:00,
2013-06-04 22:42:00,77.0,29.0,-100.00,NNW,327,6.0,21.0,17,0.00,,,-99.99,0.000000,,2013-06-05 04:42:00,
2013-06-04 22:53:00,77.0,29.0,-100.00,NNW,327,6.0,21.0,17,0.00,,,-99.99,0.000000,,2013-06-05 04:53:00,
2013-06-04 23:01:00,77.0,32.0,-100.00,WNW,301,9.0,17.0,19,0.00,,,0.00,0.000000,,2013-06-05 05:01:00,
2013-06-04 23:23:00,77.0,32.0,-100.00,WNW,301,9.0,17.0,19,0.00,,,0.00,0.000000,,2013-06-05 05:23:00,
2013-06-04 23:32:00,77.0,32.0,-100.00,WNW,301,9.0,17.0,19,0.00,,,0.00,0.000000,,2013-06-05 05:32:00,
2013-06-04 23:42:00,77.0,32.0,-100.00,WNW,301,9.0,17.0,19,0.00,,,0.00,0.000000,,2013-06-05 05:42:00,
2013-06-04 23:52:00,77.0,32.0,-100.00,WNW,301,9.0,17.0,19,0.00,,,0.00,0.000000,,2013-06-05 05:52:00,